createdAt,value
2022-10-18T00:00:37.036Z,14.95
2022-10-18T00:03:05.364Z,14.97
2022-10-18T00:05:35.066Z,14.95
2022-10-18T00:08:03.368Z,14.89
2022-10-18T00:10:31.833Z,14.91
2022-10-18T00:13:00.058Z,14.93
2022-10-18T00:15:28.343Z,14.92
2022-10-18T00:17:56.588Z,14.95
2022-10-18T00:20:24.714Z,14.93
2022-10-18T00:22:54.260Z,14.97
2022-10-18T00:25:22.409Z,14.92
2022-10-18T00:27:50.562Z,14.86
2022-10-18T00:30:18.853Z,14.86
2022-10-18T00:32:47.015Z,14.85
2022-10-18T00:35:15.239Z,14.86
2022-10-18T00:37:43.545Z,14.87
2022-10-18T00:40:13.330Z,14.89
2022-10-18T00:42:41.522Z,14.88
2022-10-18T00:45:27.882Z,14.89
2022-10-18T00:48:00.794Z,14.93
2022-10-18T00:50:33.330Z,14.89
2022-10-18T00:53:05.929Z,14.88
2022-10-18T00:55:35.912Z,14.86
2022-10-18T00:58:06.468Z,14.84
2022-10-18T01:00:38.716Z,14.83
2022-10-18T01:03:07.929Z,14.82
2022-10-18T01:05:40.945Z,14.81
2022-10-18T01:08:27.743Z,14.81
2022-10-18T01:11:08.351Z,14.83
2022-10-18T01:13:46.440Z,14.84
2022-10-18T01:16:21.366Z,14.83
2022-10-18T01:18:54.514Z,14.86
2022-10-18T01:21:43.679Z,14.87
2022-10-18T01:24:47.227Z,14.87
2022-10-18T01:27:38.982Z,14.86
2022-10-18T01:30:46.035Z,14.84
2022-10-18T01:33:37.271Z,14.89
2022-10-18T01:36:13.006Z,14.86
2022-10-18T01:38:42.624Z,14.85
2022-10-18T01:41:15.652Z,14.87
2022-10-18T01:43:46.486Z,14.86
2022-10-18T01:46:19.832Z,14.86
2022-10-18T01:48:50.331Z,14.88
2022-10-18T01:51:20.663Z,14.92
2022-10-18T01:53:48.920Z,14.94
2022-10-18T01:56:28.214Z,14.91
2022-10-18T01:59:34.150Z,14.89
2022-10-18T02:02:09.094Z,14.86
2022-10-18T02:04:43.723Z,14.88
2022-10-18T02:07:22.541Z,14.88
2022-10-18T02:10:00.034Z,14.83
2022-10-18T02:12:31.951Z,14.85
2022-10-18T02:15:01.643Z,14.88
2022-10-18T02:17:31.704Z,14.87
2022-10-18T02:20:03.408Z,14.88
2022-10-18T02:22:34.702Z,14.84
2022-10-18T02:25:06.959Z,14.82
2022-10-18T02:27:35.212Z,14.82
2022-10-18T02:30:03.711Z,14.83
2022-10-18T02:32:36.038Z,14.83
2022-10-18T02:35:08.857Z,14.77
2022-10-18T02:37:40.244Z,14.78
2022-10-18T02:40:11.306Z,14.77
2022-10-18T02:42:41.251Z,14.73
2022-10-18T02:45:09.784Z,14.77
2022-10-18T02:47:38.161Z,14.79
2022-10-18T02:50:08.384Z,14.75
2022-10-18T02:52:36.498Z,14.68
2022-10-18T02:55:05.684Z,14.70
2022-10-18T02:57:34.258Z,14.68
2022-10-18T03:00:02.855Z,14.60
2022-10-18T03:02:31.210Z,14.59
2022-10-18T03:04:59.298Z,14.54
2022-10-18T03:07:29.040Z,14.52
2022-10-18T03:09:57.630Z,14.52
2022-10-18T03:12:25.831Z,14.55
2022-10-18T03:14:54.012Z,14.54
2022-10-18T03:17:22.288Z,14.45
2022-10-18T03:19:50.452Z,14.45
2022-10-18T03:22:18.737Z,14.43
2022-10-18T03:24:48.400Z,14.43
2022-10-18T03:27:16.642Z,14.42
2022-10-18T03:29:45.130Z,14.44
2022-10-18T03:32:13.358Z,14.52
2022-10-18T03:34:41.511Z,14.48
2022-10-18T03:37:09.776Z,14.49
2022-10-18T03:39:37.868Z,14.48
2022-10-18T03:42:07.428Z,14.49
2022-10-18T03:44:35.619Z,14.50
2022-10-18T03:47:03.788Z,14.53
2022-10-18T03:52:05.499Z,14.53
2022-10-18T03:54:34.264Z,14.44
2022-10-18T03:57:02.478Z,14.47
2022-10-18T03:59:33.256Z,14.45
2022-10-18T04:02:01.553Z,14.49
2022-10-18T04:04:29.876Z,14.50
2022-10-18T04:06:58.274Z,14.48
2022-10-18T04:09:26.446Z,14.39
2022-10-18T04:11:57.270Z,14.42
2022-10-18T04:14:25.428Z,14.44
2022-10-18T04:16:54.951Z,14.45
2022-10-18T04:19:23.120Z,14.45
2022-10-18T04:21:51.339Z,14.49
2022-10-18T04:24:19.514Z,14.45
2022-10-18T04:26:47.622Z,14.44
2022-10-18T04:29:15.826Z,14.41
2022-10-18T04:31:44.057Z,14.44
2022-10-18T04:34:13.781Z,14.45
2022-10-18T04:36:41.925Z,14.43
2022-10-18T04:39:10.163Z,14.41
2022-10-18T04:41:38.379Z,14.38
2022-10-18T04:44:06.713Z,14.33
2022-10-18T04:46:34.978Z,14.29
2022-10-18T04:49:03.210Z,14.24
2022-10-18T04:51:33.076Z,14.25
2022-10-18T04:54:01.233Z,14.23
2022-10-18T04:56:29.353Z,14.20
2022-10-18T04:58:57.539Z,14.17
2022-10-18T05:01:25.803Z,14.13
2022-10-18T05:03:54.410Z,14.09
2022-10-18T05:06:23.432Z,14.00
2022-10-18T05:08:53.030Z,13.98
2022-10-18T05:11:21.179Z,13.91
2022-10-18T05:13:50.903Z,13.85
2022-10-18T05:16:19.566Z,13.76
2022-10-18T05:18:47.746Z,13.71
2022-10-18T05:21:16.023Z,13.68
2022-10-18T05:23:44.242Z,13.68
2022-10-18T05:26:13.744Z,13.70
2022-10-18T05:28:42.032Z,13.68
2022-10-18T05:31:12.074Z,13.60
2022-10-18T05:33:40.264Z,13.58
2022-10-18T05:36:09.252Z,13.52
2022-10-18T05:38:42.093Z,13.47
2022-10-18T05:41:11.114Z,13.37
2022-10-18T05:43:41.401Z,13.32
2022-10-18T05:46:15.090Z,13.30
2022-10-18T05:48:44.587Z,13.24
2022-10-18T05:51:12.878Z,13.20
2022-10-18T05:53:41.046Z,13.18
2022-10-18T05:56:12.005Z,13.19
2022-10-18T05:58:42.498Z,13.17
2022-10-18T06:01:11.731Z,13.09
2022-10-18T06:03:42.553Z,13.03
2022-10-18T06:06:12.494Z,12.93
2022-10-18T06:08:42.152Z,12.88
2022-10-18T06:11:12.022Z,12.88
2022-10-18T06:13:45.613Z,12.85
2022-10-18T06:16:15.088Z,12.80
2022-10-18T06:18:43.668Z,12.77
2022-10-18T06:21:11.855Z,12.78
2022-10-18T06:23:40.144Z,12.74
2022-10-18T06:26:10.803Z,12.63
2022-10-18T06:28:39.651Z,12.58
2022-10-18T06:31:09.310Z,12.56
2022-10-18T06:33:37.945Z,12.55
2022-10-18T06:36:08.010Z,12.59
2022-10-18T06:38:36.399Z,12.61
2022-10-18T06:41:05.810Z,12.64
2022-10-18T06:43:34.353Z,12.65
2022-10-18T06:46:04.762Z,12.59
2022-10-18T06:48:35.022Z,12.57
2022-10-18T06:51:05.900Z,12.55
2022-10-18T06:53:40.765Z,12.52
2022-10-18T06:56:13.908Z,12.50
2022-10-18T06:58:42.222Z,12.50
2022-10-18T07:01:12.550Z,12.53
2022-10-18T07:03:42.078Z,12.51
2022-10-18T07:06:11.738Z,12.45
2022-10-18T07:08:40.522Z,12.43
2022-10-18T07:11:09.822Z,12.45
2022-10-18T07:13:37.975Z,12.44
2022-10-18T07:16:08.644Z,12.46
2022-10-18T07:18:39.246Z,12.45
2022-10-18T07:21:10.691Z,12.53
2022-10-18T07:23:40.770Z,12.57
2022-10-18T07:26:14.124Z,12.66
2022-10-18T07:28:42.790Z,12.79
2022-10-18T07:31:12.656Z,12.91
2022-10-18T07:33:43.030Z,13.03
2022-10-18T07:36:14.012Z,13.14
2022-10-18T07:38:42.494Z,13.21
2022-10-18T07:41:13.219Z,13.34
2022-10-18T07:43:44.461Z,13.30
2022-10-18T07:46:13.445Z,13.38
2022-10-18T07:48:41.849Z,13.37
2022-10-18T07:51:12.303Z,13.47
2022-10-18T07:53:40.784Z,13.54
2022-10-18T07:56:16.050Z,13.59
2022-10-18T07:58:44.886Z,13.70
2022-10-18T08:01:14.269Z,13.80
2022-10-18T08:03:43.799Z,13.89
2022-10-18T08:06:16.208Z,13.96
2022-10-18T08:08:44.489Z,14.09
2022-10-18T08:11:15.259Z,14.19
2022-10-18T08:13:43.999Z,14.29
2022-10-18T08:16:13.819Z,14.35
2022-10-18T08:18:42.647Z,14.54
2022-10-18T08:21:14.278Z,14.58
2022-10-18T08:23:42.608Z,14.73
2022-10-18T08:26:13.478Z,14.77
2022-10-18T08:28:46.162Z,14.83
2022-10-18T08:31:22.375Z,14.94
2022-10-18T08:33:50.666Z,15.08
2022-10-18T08:36:20.437Z,15.12
2022-10-18T08:38:49.344Z,15.21
2022-10-18T08:41:54.405Z,15.25
2022-10-18T08:44:25.833Z,15.36
2022-10-18T08:46:57.307Z,15.54
2022-10-18T08:49:29.126Z,15.60
2022-10-18T08:52:00.113Z,15.68
2022-10-18T08:54:36.184Z,15.75
2022-10-18T08:57:12.545Z,15.91
2022-10-18T08:59:41.919Z,16.02
2022-10-18T09:02:19.918Z,16.08
2022-10-18T09:04:58.605Z,16.01
2022-10-18T09:07:51.720Z,16.10
2022-10-18T09:10:25.647Z,16.25
2022-10-18T09:13:11.611Z,16.45
2022-10-18T09:15:48.914Z,16.37
2022-10-18T09:18:34.168Z,16.58
2022-10-18T09:21:09.639Z,16.78
2022-10-18T09:23:47.612Z,16.87
2022-10-18T09:26:19.078Z,16.94
2022-10-18T09:29:02.566Z,16.92
2022-10-18T09:31:43.085Z,16.90
2022-10-18T09:34:16.129Z,17.05
2022-10-18T09:36:46.328Z,17.29
2022-10-18T09:39:19.674Z,17.14
2022-10-18T09:41:52.099Z,17.19
2022-10-18T09:44:23.802Z,17.10
2022-10-18T09:46:57.826Z,17.06
2022-10-18T09:49:30.609Z,16.88
2022-10-18T09:52:02.220Z,16.72
2022-10-18T09:54:35.955Z,16.52
2022-10-18T09:57:07.759Z,16.94
2022-10-18T09:59:39.427Z,17.24
2022-10-18T10:02:12.887Z,17.28
2022-10-18T10:04:41.195Z,17.36
2022-10-18T10:07:13.121Z,17.63
2022-10-18T10:09:47.067Z,17.46
2022-10-18T10:12:30.008Z,17.68
2022-10-18T10:15:10.625Z,17.84
2022-10-18T10:17:39.152Z,18.09
2022-10-18T10:20:19.207Z,18.09
2022-10-18T10:22:48.769Z,17.87
2022-10-18T10:25:32.006Z,17.92
2022-10-18T10:28:05.109Z,17.56
2022-10-18T10:30:35.189Z,17.69
2022-10-18T10:33:03.754Z,17.74
2022-10-18T10:35:52.531Z,18.05
2022-10-18T10:38:26.178Z,18.39
2022-10-18T10:40:55.915Z,18.44
2022-10-18T10:43:42.020Z,18.00
2022-10-18T10:46:12.589Z,17.83
2022-10-18T10:48:48.077Z,17.68
2022-10-18T10:51:19.264Z,17.61
2022-10-18T10:53:52.259Z,17.44
2022-10-18T10:56:26.315Z,17.39
2022-10-18T10:58:56.613Z,17.78
2022-10-18T11:01:28.460Z,18.09
2022-10-18T11:03:59.370Z,18.06
2022-10-18T11:06:40.529Z,18.21
2022-10-18T11:09:28.603Z,18.15
2022-10-18T11:12:04.730Z,18.12
2022-10-18T11:14:39.933Z,18.24
2022-10-18T11:17:15.883Z,18.25
2022-10-18T11:20:01.340Z,18.33
2022-10-18T11:22:40.716Z,18.33
2022-10-18T11:25:15.292Z,18.54
2022-10-18T11:27:55.225Z,18.57
2022-10-18T11:30:45.184Z,18.66
2022-10-18T11:33:33.726Z,18.57
2022-10-18T11:36:16.492Z,18.72
2022-10-18T11:38:51.756Z,18.98
2022-10-18T11:41:32.744Z,18.96
2022-10-18T11:44:04.442Z,18.92
2022-10-18T11:46:46.674Z,19.01
2022-10-18T11:49:28.420Z,19.03
2022-10-18T11:52:08.637Z,19.06
2022-10-18T11:54:56.404Z,18.96
2022-10-18T11:57:38.415Z,18.80
2022-10-18T12:00:20.225Z,18.33
2022-10-18T12:03:03.247Z,18.64
2022-10-18T12:05:33.834Z,18.88
2022-10-18T12:08:06.390Z,18.73
2022-10-18T12:10:52.830Z,18.58
2022-10-18T12:13:31.609Z,18.37
2022-10-18T12:16:03.351Z,18.07
2022-10-18T12:18:32.932Z,18.44
2022-10-18T12:21:02.122Z,18.74
2022-10-18T12:23:40.002Z,18.95
2022-10-18T12:26:10.720Z,18.98
2022-10-18T12:28:48.284Z,18.95
2022-10-18T12:31:23.482Z,18.86
2022-10-18T12:33:55.652Z,18.79
2022-10-18T12:36:42.268Z,18.86
2022-10-18T12:39:21.560Z,18.89
2022-10-18T12:41:58.250Z,18.73
2022-10-18T12:44:32.128Z,18.88
2022-10-18T12:47:03.762Z,19.10
2022-10-18T12:49:34.377Z,19.08
2022-10-18T12:52:07.048Z,18.91
2022-10-18T12:54:37.430Z,18.80
2022-10-18T12:57:07.330Z,18.83
2022-10-18T12:59:44.979Z,19.03
2022-10-18T13:02:29.907Z,19.14
2022-10-18T13:05:00.592Z,19.23
2022-10-18T13:07:43.329Z,19.06
2022-10-18T13:10:36.987Z,19.10
2022-10-18T13:13:40.840Z,18.94
2022-10-18T13:16:30.512Z,18.91
2022-10-18T13:19:11.514Z,18.98
2022-10-18T13:21:48.840Z,19.03
2022-10-18T13:24:26.192Z,18.81
2022-10-18T13:27:34.567Z,18.66
2022-10-18T13:30:31.385Z,18.72
2022-10-18T13:33:16.673Z,18.81
2022-10-18T13:35:55.528Z,18.86
2022-10-18T13:38:43.778Z,18.79
2022-10-18T13:41:14.420Z,18.79
2022-10-18T13:43:57.139Z,18.99
2022-10-18T13:46:26.732Z,19.05
2022-10-18T13:48:56.229Z,18.93
2022-10-18T13:51:36.763Z,18.87
2022-10-18T13:54:22.919Z,18.78
2022-10-18T13:57:07.091Z,18.92
2022-10-18T13:59:48.142Z,18.93
2022-10-18T14:02:51.103Z,18.65
2022-10-18T14:05:53.155Z,18.80
2022-10-18T14:08:29.246Z,18.65
2022-10-18T14:11:05.103Z,18.83
2022-10-18T14:13:43.027Z,18.77
2022-10-18T14:16:30.489Z,18.78
2022-10-18T14:19:07.919Z,18.83
2022-10-18T14:21:40.616Z,18.85
2022-10-18T14:24:20.977Z,18.78
2022-10-18T14:26:49.340Z,18.80
2022-10-18T14:29:20.289Z,18.74
2022-10-18T14:31:55.077Z,18.49
2022-10-18T14:34:23.391Z,18.49
2022-10-18T14:36:52.654Z,18.30
2022-10-18T14:39:27.536Z,18.18
2022-10-18T14:41:57.807Z,18.02
2022-10-18T14:44:28.045Z,17.84
2022-10-18T14:47:01.489Z,17.67
2022-10-18T14:49:30.749Z,17.62
2022-10-18T14:52:01.125Z,17.53
2022-10-18T14:54:34.088Z,17.61
2022-10-18T14:57:04.399Z,17.52
2022-10-18T14:59:43.100Z,17.44
2022-10-18T15:02:17.991Z,17.35
2022-10-18T15:04:49.123Z,17.35
2022-10-18T15:07:18.829Z,17.28
2022-10-18T15:09:49.355Z,17.13
2022-10-18T15:12:18.932Z,17.13
2022-10-18T15:14:48.919Z,17.11
2022-10-18T15:17:23.596Z,17.04
2022-10-18T15:20:00.459Z,17.05
2022-10-18T15:22:33.284Z,17.03
2022-10-18T15:25:14.582Z,16.96
2022-10-18T15:27:45.701Z,16.88
2022-10-18T15:30:20.010Z,16.88
2022-10-18T15:32:50.802Z,16.80
2022-10-18T15:35:25.893Z,16.64
2022-10-18T15:37:56.127Z,16.62
2022-10-18T15:40:35.081Z,16.64
2022-10-18T15:43:06.863Z,16.61
2022-10-18T15:45:38.042Z,16.59
2022-10-18T15:48:26.160Z,16.55
2022-10-18T15:50:56.419Z,16.46
2022-10-18T15:53:45.847Z,16.41
2022-10-18T15:56:29.296Z,16.44
2022-10-18T15:58:58.915Z,16.35
2022-10-18T16:01:43.831Z,16.28
2022-10-18T16:04:19.809Z,16.18
2022-10-18T16:06:48.031Z,16.14
2022-10-18T16:09:19.175Z,16.07
2022-10-18T16:11:55.573Z,15.99
2022-10-18T16:14:26.029Z,15.95
2022-10-18T16:17:02.344Z,15.82
2022-10-18T16:19:30.927Z,15.73
2022-10-18T16:22:05.200Z,15.67
2022-10-18T16:24:34.440Z,15.60
2022-10-18T16:27:04.092Z,15.55
2022-10-18T16:29:33.134Z,15.42
2022-10-18T16:32:01.637Z,15.34
2022-10-18T16:34:32.135Z,15.29
2022-10-18T16:37:00.473Z,15.26
2022-10-18T16:39:30.007Z,15.22
2022-10-18T16:41:58.314Z,15.14
2022-10-18T16:44:28.019Z,15.10
2022-10-18T16:46:56.454Z,15.03
2022-10-18T16:49:27.405Z,14.99
2022-10-18T16:51:56.169Z,14.98
2022-10-18T16:54:24.596Z,14.89
2022-10-18T16:56:52.930Z,14.82
2022-10-18T16:59:26.718Z,14.79
2022-10-18T17:01:56.650Z,14.75
2022-10-18T17:04:24.947Z,14.65
2022-10-18T17:06:55.473Z,14.55
2022-10-18T17:09:26.029Z,14.52
2022-10-18T17:11:54.256Z,14.43
2022-10-18T17:14:22.474Z,14.38
2022-10-18T17:16:54.675Z,14.28
2022-10-18T17:19:27.161Z,14.24
2022-10-18T17:21:58.873Z,14.17
2022-10-18T17:24:29.860Z,14.14
2022-10-18T17:26:58.053Z,14.10
2022-10-18T17:29:26.330Z,14.05
2022-10-18T17:31:54.548Z,13.98
2022-10-18T17:34:22.798Z,13.94
2022-10-18T17:36:52.422Z,13.96
2022-10-18T17:39:20.604Z,13.89
2022-10-18T17:41:48.770Z,13.85
2022-10-18T17:44:17.131Z,13.85
2022-10-18T17:46:45.350Z,13.79
2022-10-18T17:49:14.157Z,13.76
2022-10-18T17:51:42.867Z,13.64
2022-10-18T17:54:12.760Z,13.65
2022-10-18T17:56:41.460Z,13.63
2022-10-18T17:59:10.192Z,13.59
2022-10-18T18:01:38.625Z,13.55
2022-10-18T18:04:07.316Z,13.62
2022-10-18T18:06:39.009Z,13.56
2022-10-18T18:09:09.153Z,13.50
2022-10-18T18:11:40.295Z,13.46
2022-10-18T18:14:09.682Z,13.38
2022-10-18T18:16:39.000Z,13.33
2022-10-18T18:19:09.866Z,13.31
2022-10-18T18:21:38.874Z,13.35
2022-10-18T18:24:07.785Z,13.31
2022-10-18T18:26:38.777Z,13.33
2022-10-18T18:29:07.437Z,13.32
2022-10-18T18:31:40.141Z,13.25
2022-10-18T18:34:11.503Z,13.23
2022-10-18T18:36:40.032Z,13.22
2022-10-18T18:39:09.027Z,13.16
2022-10-18T18:41:38.798Z,13.15
2022-10-18T18:44:07.363Z,13.08
2022-10-18T18:46:38.842Z,13.08
2022-10-18T18:49:08.372Z,13.11
2022-10-18T18:51:39.658Z,13.08
2022-10-18T18:54:08.451Z,13.04
2022-10-18T18:56:38.288Z,12.91
2022-10-18T18:59:07.114Z,12.92
2022-10-18T19:01:38.732Z,12.95
2022-10-18T19:04:09.056Z,12.92
2022-10-18T19:06:39.811Z,12.92
2022-10-18T19:09:13.467Z,12.85
2022-10-18T19:11:43.144Z,12.80
2022-10-18T19:14:11.475Z,12.77
2022-10-18T19:16:41.514Z,12.72
2022-10-18T19:19:13.203Z,12.69
2022-10-18T19:21:44.325Z,12.62
2022-10-18T19:24:13.412Z,12.62
2022-10-18T19:26:45.452Z,12.61
2022-10-18T19:29:15.551Z,12.64
2022-10-18T19:31:44.747Z,12.59
2022-10-18T19:34:14.589Z,12.55
2022-10-18T19:36:44.119Z,12.56
2022-10-18T19:39:19.136Z,12.47
2022-10-18T19:41:50.693Z,12.37
2022-10-18T19:44:20.148Z,12.34
2022-10-18T19:46:49.189Z,12.33
2022-10-18T19:49:18.024Z,12.33
2022-10-18T19:51:46.856Z,12.25
2022-10-18T19:54:16.563Z,12.21
2022-10-18T19:56:45.001Z,12.20
2022-10-18T19:59:16.445Z,12.26
2022-10-18T20:01:46.194Z,12.22
2022-10-18T20:04:15.354Z,12.31
2022-10-18T20:06:44.224Z,12.32
2022-10-18T20:09:17.666Z,12.32
2022-10-18T20:11:48.964Z,12.35
2022-10-18T20:14:18.677Z,12.28
2022-10-18T20:16:46.982Z,12.27
2022-10-18T20:19:15.436Z,12.25
2022-10-18T20:21:43.792Z,12.23
2022-10-18T20:24:12.677Z,12.23
2022-10-18T20:26:41.215Z,12.20
2022-10-18T20:29:09.863Z,12.21
2022-10-18T20:31:39.633Z,12.16
2022-10-18T20:34:14.710Z,12.15
2022-10-18T20:36:43.040Z,12.14
2022-10-18T20:39:11.316Z,12.14
2022-10-18T20:41:41.898Z,12.11
2022-10-18T20:44:14.634Z,12.07
2022-10-18T20:46:47.429Z,12.03
2022-10-18T20:49:17.175Z,12.04
2022-10-18T20:51:45.593Z,12.01
2022-10-18T20:54:14.775Z,12.00
2022-10-18T20:56:43.346Z,11.97
2022-10-18T20:59:11.611Z,11.97
2022-10-18T21:01:40.313Z,11.98
2022-10-18T21:04:11.204Z,11.92
2022-10-18T21:06:41.329Z,11.90
2022-10-18T21:09:12.995Z,11.81
2022-10-18T21:11:42.500Z,11.79
2022-10-18T21:14:13.718Z,11.79
2022-10-18T21:16:42.895Z,11.76
2022-10-18T21:19:14.877Z,11.69
2022-10-18T21:21:44.935Z,11.66
2022-10-18T21:24:14.383Z,11.61
2022-10-18T21:26:42.560Z,11.54
2022-10-18T21:29:12.297Z,11.49
2022-10-18T21:31:42.612Z,11.48
2022-10-18T21:34:15.250Z,11.46
2022-10-18T21:36:44.986Z,11.47
2022-10-18T21:39:15.115Z,11.34
2022-10-18T21:41:43.798Z,11.31
2022-10-18T21:44:12.328Z,11.33
2022-10-18T21:46:42.918Z,11.37
2022-10-18T21:49:12.800Z,11.41
2022-10-18T21:51:41.595Z,11.39
2022-10-18T21:54:13.483Z,11.34
2022-10-18T21:56:41.822Z,11.37
2022-10-18T21:59:12.048Z,11.36
2022-10-18T22:01:41.229Z,11.31
2022-10-18T22:04:21.092Z,11.29
2022-10-18T22:06:49.803Z,11.28
2022-10-18T22:09:18.075Z,11.30
2022-10-18T22:11:50.610Z,11.30
2022-10-18T22:14:18.829Z,11.33
2022-10-18T22:16:47.020Z,11.30
2022-10-18T22:19:15.192Z,11.29
2022-10-18T22:21:44.712Z,11.29
2022-10-18T22:24:12.925Z,11.27
2022-10-18T22:26:43.600Z,11.28
2022-10-18T22:29:14.054Z,11.25
2022-10-18T22:31:44.433Z,11.25
2022-10-18T22:34:14.504Z,11.20
2022-10-18T22:36:44.421Z,11.19
2022-10-18T22:39:14.423Z,11.18
2022-10-18T22:41:43.483Z,11.17
2022-10-18T22:44:13.273Z,11.16
2022-10-18T22:46:41.819Z,11.17
2022-10-18T22:49:10.169Z,11.19
2022-10-18T22:51:38.453Z,11.20
2022-10-18T22:54:08.134Z,11.26
2022-10-18T22:56:37.121Z,11.32
2022-10-18T22:59:05.352Z,11.36
2022-10-18T23:01:35.663Z,11.37
2022-10-18T23:04:05.056Z,11.39
2022-10-18T23:06:35.200Z,11.36
2022-10-18T23:09:06.082Z,11.34
2022-10-18T23:11:36.918Z,11.33
2022-10-18T23:14:06.866Z,11.37
2022-10-18T23:16:35.181Z,11.36
2022-10-18T23:19:03.711Z,11.32
2022-10-18T23:21:31.983Z,11.33
2022-10-18T23:24:00.382Z,11.29
2022-10-18T23:26:29.197Z,11.30
2022-10-18T23:28:58.814Z,11.28
2022-10-18T23:31:29.884Z,11.23
2022-10-18T23:34:01.345Z,11.22
2022-10-18T23:36:30.173Z,11.20
2022-10-18T23:38:58.658Z,11.17
2022-10-18T23:41:27.404Z,11.16
2022-10-18T23:43:56.129Z,11.11
2022-10-18T23:46:27.851Z,11.15
2022-10-18T23:48:56.048Z,11.12
2022-10-18T23:51:24.169Z,11.04
2022-10-18T23:53:52.431Z,11.03
2022-10-18T23:56:20.579Z,10.99
2022-10-18T23:58:48.681Z,10.97
